Raymond, KS (67573)

10:53 PM CDT on July 29, 2014 (GMT -0500)
RAWS STAFFORD KS US (MQNRK1) Elev 1768 ft | 38.14 °N, 98.48 °W | Change Station

Current weather conditions updated 54 minutes ago

Clear
Clear
71 °F
Feels Like 73 °F
N
0
Wind Variable Wind from North
Gusts 7.0 mph

Tomorrow is forecast to be Much Cooler than today. Showers possible.

Today
High -- | Low -- °F
--% Chance of Precip.
Yesterday
High -- | Low -- °F
Precip. -- in
6:33 AM 8:46 PM
Waxing Crescent, 9% visible
Pressure 30.10 in
Visibility 10.0 miles
Clouds Clear
Heat Index 73 °F
Dew Point 62 °F
Humidity 73%
Rainfall 0.00 in
Snow Depth Not available.
UV 0 out of 12
Pollen 6.30 out of 12
Air Quality Not available.
Flu Activity Not available.
METAR KGBD 300335Z AUTO 06004KT 10SM CLR 24/16 A3010 RMK AO1

More Conditions Fewer Conditions

Pressure 30.10 in
Visibility 10.0 miles
Clouds Clear
Heat Index 73 °F
Dew Point 62 °F
Humidity 73%
Rainfall 0.00 in
Snow Depth Not available.
UV 0 out of 12
Pollen 6.30 out of 12
Air Quality Not available.
Flu Activity Not available.
METAR KGBD 300335Z AUTO 06004KT 10SM CLR 24/16 A3010 RMK AO1

More Conditions Fewer Conditions

10-Day Weather Forecast

Almanac

Astronomy

Jul. 29, 2014 Rise Set
Actual Time 6:33 AM CDT 8:46 PM CDT
Civil Twilight 6:03 AM CDT 9:15 PM CDT
Nautical Twilight 5:27 AM CDT 9:51 PM CDT
Astronomical Twilight 4:47 AM CDT 10:31 PM CDT
Moon 9:08 AM CDT (7/29) 10:02 PM CDT (7/29)
Length of Visible Light 15h 11m
Length of Day
14h 12m
Tomorrow will be 1m 47s shorter.
Waxing Crescent, 9% of the Moon is Illuminated
Today
Waxing Crescent
Aug 3
First Quarter
Aug 10
Full
Aug 17
Last Quarter
Aug 25
New

Today's Extremes

State Highs State Lows

Community

WunderPhotos

Upload Photos

1,738,991 photos uploaded!

WunderBlogs® & News

By Dr. Jeff Masters
Director of Meteorology, Weather Underground
By Kari Strenfel
Meteorologist, Weather Underground
By Christopher C. Burt
Weather Historian, Weather Underground
July 29, 2014
July 29, 2014
July 29, 2014

Nearby

Snow Depth

Station Depth Elevation
No new snow has been reported.

Earthquake Activity

City Distance Mag. Time & Date
Helena, Oklahoma 112 miles 3.3 11:56 PM CDT
2014-07-24
Minimum magnitude displayed is 2.5.

Coastal Water Temperatures

Place Temperature
No Stations Reporting

Nearby Weather Stations

Station Location Temp. Heat Index Dew Point Humidity Wind Precip. Elev Updated Type
RAWS STAFFORD KS, Hudson, KS 71 °F 73 °F 62 °F 73% North  at  0 mph 0.00 in / hr 1768 ft 9:59 PM CDT MADIS
Ellinwood High School, Ellinwood, KS 72.1 °F 74 °F 62 °F 71% East  at  2.0 mph 0.00 in / hr 1811 ft 10:53 PM CDT Rapid Fire
Lyons, KS 77.7 °F 79 °F 53 °F 42% North  at  - - / hr 1729 ft 10:53 PM CDT Rapid Fire
HADS ARKANSAS RIVER AT GREAT BEND KS, Great Bend, KS 78 °F 76 °F - - North  at  - 0.00 in / hr 1850 ft 9:30 PM CDT MADIS
Eisenhower School Area, Great Bend, KS 76.6 °F 78 °F 62 °F 61% East  at  1.0 mph 0.00 in / hr 1860 ft 10:52 PM CDT Normal

Show More Stations Show Fewer Stations